TNCB/BON METAR and TAF weather

Enter ICAO airport designator
Station Type Date Time Source
TNCB METAR 2020/09/21 05:55 UTC NOAA

TNCB 210555Z AUTO 10004KT 9999 NSC 27/24 Q1009


Station Type Date Time Source
TNCB Decoded METAR 2020/09/21 05:55 UTC NOAA

Flamingo Airport, Bonaire, Netherlands Antilles (TNCB) 12-09N 068-17W 7M
Sep 21, 2020 - 01:55 AM EDT / 2020.09.21 0555 UTC
Wind: from the E (100 degrees) at 5 MPH (4 KT):0
Visibility: greater than 7 mile(s):0
Temperature: 80 F (27 C)
Dew Point: 75 F (24 C)
Relative Humidity: 83%
Pressure (altimeter): 29.80 in. Hg (1009 hPa)
ob: TNCB 210555Z AUTO 10004KT 9999 NSC 27/24 Q1009
cycle: 6

Station Type Date Time Source
TNCB TAF 2020/09/21 06:27 UTC NOAA

TAF TAF TNCB 210511Z 2106/2212 09010KT 9999 SCT020 PROB30
TEMPO 2106/2112 VRB10KT 2500 SHRA TSRA SCT015CB

Example: see airport list